createdAt,value
2019-01-23T00:01:31.930Z,46.20
2019-01-23T00:03:33.552Z,46.15
2019-01-23T00:05:35.213Z,46.07
2019-01-23T00:07:36.872Z,46.29
2019-01-23T00:09:38.469Z,46.14
2019-01-23T00:11:40.085Z,44.66
2019-01-23T00:13:41.681Z,45.17
2019-01-23T00:15:43.332Z,44.90
2019-01-23T00:17:44.930Z,44.83
2019-01-23T00:19:46.540Z,45.56
2019-01-23T00:21:48.137Z,46.22
2019-01-23T00:23:49.743Z,47.31
2019-01-23T00:25:51.338Z,47.86
2019-01-23T00:27:52.962Z,47.89
2019-01-23T00:29:54.596Z,48.22
2019-01-23T00:31:56.207Z,48.39
2019-01-23T00:33:57.839Z,48.69
2019-01-23T00:35:59.434Z,48.59
2019-01-23T00:38:01.020Z,48.59
2019-01-23T00:40:02.623Z,48.96
2019-01-23T00:42:04.227Z,49.17
2019-01-23T00:44:05.847Z,49.22
2019-01-23T00:46:07.495Z,49.03
2019-01-23T00:48:09.080Z,49.11
2019-01-23T00:50:10.677Z,48.88
2019-01-23T00:52:12.388Z,49.04
2019-01-23T00:54:13.992Z,48.82
2019-01-23T00:56:15.589Z,48.67
2019-01-23T00:58:17.243Z,48.69
2019-01-23T01:00:18.857Z,48.78
2019-01-23T01:02:20.472Z,48.81
2019-01-23T01:04:22.092Z,49.25
2019-01-23T01:06:23.714Z,49.20
2019-01-23T01:08:25.354Z,49.15
2019-01-23T01:10:26.978Z,49.61
2019-01-23T01:12:28.613Z,49.46
2019-01-23T01:14:30.210Z,49.75
2019-01-23T01:16:31.816Z,50.13
2019-01-23T01:18:33.453Z,50.27
2019-01-23T01:20:35.063Z,49.90
2019-01-23T01:22:36.678Z,50.01
2019-01-23T01:24:38.278Z,50.01
2019-01-23T01:26:39.859Z,49.98
2019-01-23T01:28:41.457Z,50.75
2019-01-23T01:30:43.108Z,50.51
2019-01-23T01:32:44.709Z,50.45
2019-01-23T01:34:46.315Z,50.51
2019-01-23T01:36:47.928Z,50.54
2019-01-23T01:38:49.529Z,50.34
2019-01-23T01:40:51.141Z,50.35
2019-01-23T01:42:52.777Z,50.71
2019-01-23T01:44:54.386Z,50.71
2019-01-23T01:46:56.003Z,50.93
2019-01-23T01:48:57.598Z,50.99
2019-01-23T01:50:59.208Z,51.09
2019-01-23T01:53:00.806Z,51.52
2019-01-23T01:55:02.454Z,51.91
2019-01-23T01:57:04.053Z,51.99
2019-01-23T01:59:05.664Z,51.77
2019-01-23T02:01:07.285Z,52.35
2019-01-23T02:03:08.892Z,52.45
2019-01-23T02:05:10.505Z,52.38
2019-01-23T02:07:12.101Z,52.59
2019-01-23T02:09:13.742Z,52.52
2019-01-23T02:11:15.337Z,52.91
2019-01-23T02:13:16.963Z,52.59
2019-01-23T02:15:18.593Z,52.41
2019-01-23T02:17:20.176Z,52.61
2019-01-23T02:19:21.793Z,52.72
2019-01-23T02:21:23.380Z,52.77
2019-01-23T02:23:24.984Z,52.36
2019-01-23T02:25:26.582Z,52.42
2019-01-23T02:27:28.218Z,52.34
2019-01-23T02:29:29.818Z,52.07
2019-01-23T02:31:31.434Z,51.79
2019-01-23T02:33:33.084Z,51.58
2019-01-23T02:35:34.695Z,51.38
2019-01-23T02:37:36.293Z,51.08
2019-01-23T02:39:37.890Z,51.18
2019-01-23T02:41:39.475Z,51.18
2019-01-23T02:43:41.076Z,50.79
2019-01-23T02:45:42.707Z,50.83
2019-01-23T02:47:44.301Z,50.62
2019-01-23T02:49:45.894Z,50.63
2019-01-23T02:51:47.508Z,50.76
2019-01-23T02:53:49.124Z,50.63
2019-01-23T02:55:50.724Z,50.52
2019-01-23T02:57:52.380Z,50.25
2019-01-23T02:59:53.994Z,49.67
2019-01-23T03:01:55.591Z,50.05
2019-01-23T03:03:57.199Z,50.42
2019-01-23T03:05:58.818Z,50.79
2019-01-23T03:08:00.423Z,51.04
2019-01-23T03:10:02.061Z,51.14
2019-01-23T03:12:03.657Z,51.47
2019-01-23T03:14:05.252Z,51.70
2019-01-23T03:16:06.893Z,52.31
2019-01-23T03:18:08.506Z,52.18
2019-01-23T03:20:10.095Z,52.56
2019-01-23T03:22:11.733Z,52.57
2019-01-23T03:24:13.327Z,53.09
2019-01-23T03:26:14.926Z,53.17
2019-01-23T03:28:16.570Z,53.95
2019-01-23T03:30:18.193Z,54.18
2019-01-23T03:32:19.802Z,54.60
2019-01-23T03:34:21.398Z,54.83
2019-01-23T03:36:22.993Z,55.28
2019-01-23T03:38:24.608Z,55.26
2019-01-23T03:40:26.235Z,55.47
2019-01-23T03:42:27.838Z,55.45
2019-01-23T03:44:29.477Z,55.82
2019-01-23T03:46:31.088Z,55.79
2019-01-23T03:48:32.700Z,55.73
2019-01-23T03:50:34.327Z,55.19
2019-01-23T03:52:35.927Z,55.79
2019-01-23T03:54:37.541Z,55.35
2019-01-23T03:56:39.141Z,54.81
2019-01-23T03:58:40.743Z,54.95
2019-01-23T04:00:42.403Z,54.83
2019-01-23T04:02:44.002Z,54.46
2019-01-23T04:04:45.602Z,54.12
2019-01-23T04:06:47.221Z,54.14
2019-01-23T04:08:48.810Z,54.01
2019-01-23T04:10:50.417Z,53.84
2019-01-23T04:12:52.068Z,53.45
2019-01-23T04:14:53.675Z,53.35
2019-01-23T04:16:55.279Z,53.30
2019-01-23T04:18:56.895Z,53.37
2019-01-23T04:20:58.496Z,52.96
2019-01-23T04:23:00.099Z,52.97
2019-01-23T04:25:01.704Z,53.02
2019-01-23T04:27:03.343Z,53.09
2019-01-23T04:29:04.950Z,52.98
2019-01-23T04:31:06.563Z,53.06
2019-01-23T04:33:08.169Z,53.30
2019-01-23T04:35:09.770Z,53.50
2019-01-23T04:37:11.401Z,53.40
2019-01-23T04:39:13.001Z,53.16
2019-01-23T04:41:14.611Z,53.41
2019-01-23T04:43:16.224Z,53.62
2019-01-23T04:45:17.827Z,53.23
2019-01-23T04:47:19.476Z,53.30
2019-01-23T04:49:21.087Z,53.05
2019-01-23T04:51:28.360Z,53.08
2019-01-23T04:53:31.804Z,53.09
2019-01-23T04:55:33.467Z,53.44
2019-01-23T04:57:35.067Z,53.82
2019-01-23T04:59:36.656Z,53.57
2019-01-23T05:01:38.268Z,53.74
2019-01-23T05:03:39.856Z,53.68
2019-01-23T05:05:41.470Z,53.72
2019-01-23T05:07:43.094Z,54.04
2019-01-23T05:09:44.718Z,53.88
2019-01-23T05:11:46.325Z,54.26
2019-01-23T05:13:47.927Z,54.34
2019-01-23T05:15:49.560Z,55.05
2019-01-23T05:17:51.168Z,55.21
2019-01-23T05:19:52.780Z,55.24
2019-01-23T05:21:54.409Z,55.12
2019-01-23T05:23:56.008Z,54.72
2019-01-23T05:25:57.661Z,54.27
2019-01-23T05:27:59.303Z,53.95
2019-01-23T05:30:00.888Z,53.80
2019-01-23T05:32:02.789Z,53.80
2019-01-23T05:34:04.142Z,53.37
2019-01-23T05:36:05.761Z,52.94
2019-01-23T05:38:07.357Z,52.39
2019-01-23T05:40:08.992Z,52.32
2019-01-23T05:42:10.610Z,52.47
2019-01-23T05:44:12.210Z,52.31
2019-01-23T05:46:13.846Z,51.75
2019-01-23T05:48:15.455Z,51.76
2019-01-23T05:50:17.068Z,51.49
2019-01-23T05:52:18.657Z,51.76
2019-01-23T05:54:20.273Z,51.88
2019-01-23T05:56:21.870Z,51.75
2019-01-23T05:58:23.516Z,51.78
2019-01-23T06:00:25.109Z,51.76
2019-01-23T06:02:26.702Z,51.78
2019-01-23T06:04:28.293Z,51.89
2019-01-23T06:06:29.889Z,51.64
2019-01-23T06:08:31.485Z,51.70
2019-01-23T06:10:33.109Z,52.09
2019-01-23T06:12:34.716Z,51.97
2019-01-23T06:14:36.312Z,52.24
2019-01-23T06:16:37.924Z,52.77
2019-01-23T06:18:39.524Z,52.78
2019-01-23T06:20:41.191Z,52.71
2019-01-23T06:22:42.800Z,52.65
2019-01-23T06:24:44.415Z,52.15
2019-01-23T06:26:46.013Z,51.75
2019-01-23T06:28:47.610Z,51.93
2019-01-23T06:30:49.228Z,51.98
2019-01-23T06:32:50.855Z,51.79
2019-01-23T06:34:52.467Z,52.24
2019-01-23T06:36:54.080Z,51.89
2019-01-23T06:38:55.678Z,52.28
2019-01-23T06:40:57.334Z,52.05
2019-01-23T06:42:58.943Z,52.12
2019-01-23T06:45:00.543Z,51.93
2019-01-23T06:47:02.156Z,52.25
2019-01-23T06:49:03.758Z,52.43
2019-01-23T06:51:05.356Z,52.68
2019-01-23T06:53:06.989Z,52.50
2019-01-23T06:55:08.630Z,52.75
2019-01-23T06:57:10.240Z,52.74
2019-01-23T06:59:11.839Z,52.46
2019-01-23T07:01:13.461Z,52.60
2019-01-23T07:03:15.062Z,52.43
2019-01-23T07:05:16.664Z,52.05
2019-01-23T07:07:18.256Z,52.24
2019-01-23T07:09:19.868Z,52.03
2019-01-23T07:11:21.475Z,51.68
2019-01-23T07:13:23.060Z,51.08
2019-01-23T07:15:24.672Z,50.95
2019-01-23T07:17:26.297Z,51.69
2019-01-23T07:19:27.903Z,51.38
2019-01-23T07:21:29.502Z,51.05
2019-01-23T07:23:31.103Z,51.42
2019-01-23T07:25:32.738Z,51.44
2019-01-23T07:27:34.337Z,51.65
2019-01-23T07:29:35.934Z,51.72
2019-01-23T07:31:37.534Z,51.67
2019-01-23T07:33:39.130Z,51.91
2019-01-23T07:35:40.740Z,52.37
2019-01-23T07:37:42.355Z,52.17
2019-01-23T07:39:43.967Z,52.43
2019-01-23T07:41:45.609Z,52.55
2019-01-23T07:43:47.191Z,52.76
2019-01-23T07:45:48.824Z,52.86
2019-01-23T07:47:50.457Z,52.54
2019-01-23T07:49:52.061Z,52.40
2019-01-23T07:51:53.658Z,52.35
2019-01-23T07:53:55.254Z,52.40
2019-01-23T07:55:56.849Z,52.58
2019-01-23T07:57:58.489Z,52.66
2019-01-23T08:00:00.224Z,52.80
2019-01-23T08:02:01.817Z,52.45
2019-01-23T08:04:03.404Z,52.59
2019-01-23T08:06:05.041Z,52.17
2019-01-23T08:08:06.628Z,52.08
2019-01-23T08:10:08.236Z,51.75
2019-01-23T08:12:10.803Z,51.81
2019-01-23T08:14:11.508Z,52.01
2019-01-23T08:16:13.106Z,52.59
2019-01-23T08:18:14.699Z,52.48
2019-01-23T08:20:16.326Z,52.64
2019-01-23T08:22:17.931Z,52.46
2019-01-23T08:24:19.741Z,52.49
2019-01-23T08:26:21.367Z,52.22
2019-01-23T08:28:22.962Z,52.04
2019-01-23T08:30:24.572Z,52.23
2019-01-23T08:32:26.218Z,51.93
2019-01-23T08:34:27.814Z,51.98
2019-01-23T08:36:29.419Z,51.98
2019-01-23T08:38:31.072Z,51.81
2019-01-23T08:40:32.670Z,52.28
2019-01-23T08:42:34.274Z,51.97
2019-01-23T08:44:35.898Z,52.21
2019-01-23T08:46:37.521Z,52.21
2019-01-23T08:48:39.117Z,52.42
2019-01-23T08:50:40.725Z,52.99
2019-01-23T08:52:42.377Z,53.25
2019-01-23T08:54:43.961Z,53.27
2019-01-23T08:56:45.557Z,53.51
2019-01-23T08:58:47.167Z,54.49
2019-01-23T09:00:48.767Z,53.79
2019-01-23T09:02:50.410Z,55.05
2019-01-23T09:04:52.010Z,54.87
2019-01-23T09:06:53.610Z,55.00
2019-01-23T09:08:55.192Z,55.21
2019-01-23T09:10:56.794Z,55.01
2019-01-23T09:12:58.384Z,55.07
2019-01-23T09:15:00.027Z,55.53
2019-01-23T09:17:01.622Z,55.92
2019-01-23T09:19:03.232Z,55.22
2019-01-23T09:21:04.834Z,55.01
2019-01-23T09:23:06.460Z,54.47
2019-01-23T09:25:08.127Z,54.03
2019-01-23T09:27:09.725Z,54.08
2019-01-23T09:29:11.322Z,53.84
2019-01-23T09:31:12.945Z,53.93
2019-01-23T09:33:14.541Z,53.91
2019-01-23T09:35:16.133Z,53.88
2019-01-23T09:37:17.760Z,53.88
2019-01-23T09:39:19.403Z,53.81
2019-01-23T09:41:20.998Z,53.57
2019-01-23T09:43:22.650Z,53.17
2019-01-23T09:45:24.245Z,52.74
2019-01-23T09:47:25.842Z,52.46
2019-01-23T09:49:27.452Z,51.87
2019-01-23T09:51:29.050Z,51.58
2019-01-23T09:53:30.673Z,51.37
2019-01-23T09:55:32.288Z,51.23
2019-01-23T09:57:33.881Z,51.06
2019-01-23T09:59:35.510Z,50.89
2019-01-23T10:01:37.120Z,34.00
2019-01-23T10:03:38.732Z,33.36
2019-01-23T10:05:40.379Z,32.46
2019-01-23T10:07:41.973Z,31.99
2019-01-23T10:09:43.569Z,32.21
2019-01-23T10:11:45.237Z,31.48
2019-01-23T10:13:46.829Z,37.81
2019-01-23T10:15:48.439Z,37.82
2019-01-23T10:17:50.089Z,36.99
2019-01-23T10:19:52.667Z,36.98
2019-01-23T10:21:53.433Z,39.04
2019-01-23T10:23:55.092Z,42.53
2019-01-23T10:25:56.686Z,41.95
2019-01-23T10:27:58.277Z,41.94
2019-01-23T10:29:59.884Z,41.69
2019-01-23T10:32:01.529Z,41.54
2019-01-23T10:34:03.166Z,41.45
2019-01-23T10:36:04.758Z,41.34
2019-01-23T10:38:06.372Z,41.73
2019-01-23T10:40:07.984Z,42.82
2019-01-23T10:42:09.589Z,42.82
2019-01-23T10:44:11.211Z,42.50
2019-01-23T10:46:12.928Z,42.59
2019-01-23T10:48:14.527Z,42.69
2019-01-23T10:50:16.121Z,42.70
2019-01-23T10:52:17.737Z,43.17
2019-01-23T10:54:19.334Z,42.49
2019-01-23T10:56:20.931Z,42.41
2019-01-23T10:58:22.529Z,42.68
2019-01-23T11:00:24.154Z,42.71
2019-01-23T11:02:25.737Z,42.65
2019-01-23T11:04:27.334Z,43.39
2019-01-23T11:06:28.968Z,43.59
2019-01-23T11:08:30.572Z,44.11
2019-01-23T11:10:32.171Z,44.39
2019-01-23T11:12:33.766Z,44.85
2019-01-23T11:14:35.386Z,44.61
2019-01-23T11:16:36.996Z,44.88
2019-01-23T11:18:38.590Z,45.09
2019-01-23T11:20:40.176Z,45.17
2019-01-23T11:22:41.773Z,45.76
2019-01-23T11:24:43.374Z,45.79
2019-01-23T11:26:44.983Z,45.46
2019-01-23T11:28:46.596Z,45.82
2019-01-23T11:30:48.199Z,46.17
2019-01-23T11:32:49.800Z,46.52
2019-01-23T11:34:51.431Z,47.20
2019-01-23T11:36:53.068Z,47.46
2019-01-23T11:38:54.680Z,47.57
2019-01-23T11:40:56.274Z,47.69
2019-01-23T11:42:57.876Z,47.65
2019-01-23T11:44:59.500Z,47.64
2019-01-23T11:47:01.094Z,47.76
2019-01-23T11:49:02.713Z,47.75
2019-01-23T11:51:04.324Z,48.01
2019-01-23T11:53:05.908Z,48.34
2019-01-23T11:55:07.518Z,48.40
2019-01-23T11:57:09.132Z,48.58
2019-01-23T11:59:10.746Z,48.81
2019-01-23T12:01:12.404Z,48.99
2019-01-23T12:03:20.701Z,48.57
2019-01-23T12:05:16.400Z,48.67
2019-01-23T12:07:18.011Z,48.69
2019-01-23T12:09:19.617Z,48.55
2019-01-23T12:11:21.268Z,48.52
2019-01-23T12:13:22.929Z,48.62
2019-01-23T12:15:24.575Z,48.64
2019-01-23T12:17:26.312Z,48.82
2019-01-23T12:19:27.919Z,48.11
2019-01-23T12:21:29.517Z,47.88
2019-01-23T12:23:31.162Z,47.88
2019-01-23T12:25:32.766Z,47.81
2019-01-23T12:27:34.365Z,47.69
2019-01-23T12:29:35.971Z,47.21
2019-01-23T12:31:37.574Z,47.15
2019-01-23T12:33:39.163Z,46.84
2019-01-23T12:35:40.759Z,46.62
2019-01-23T12:37:42.353Z,46.33
2019-01-23T12:39:43.988Z,46.19
2019-01-23T12:41:45.586Z,46.11
2019-01-23T12:43:47.181Z,46.08
2019-01-23T12:45:48.826Z,45.98
2019-01-23T12:47:50.432Z,46.02
2019-01-23T12:49:52.035Z,46.05
2019-01-23T12:51:53.644Z,46.08
2019-01-23T12:53:55.266Z,46.15
2019-01-23T12:55:56.988Z,46.27
2019-01-23T12:57:58.595Z,46.22
2019-01-23T13:00:05.099Z,46.30
2019-01-23T13:02:01.871Z,46.48
2019-01-23T13:04:03.465Z,46.54
2019-01-23T13:06:05.100Z,46.69
2019-01-23T13:08:06.698Z,46.86
2019-01-23T13:10:08.317Z,46.86
2019-01-23T13:12:10.003Z,47.00
2019-01-23T13:14:11.601Z,47.05
2019-01-23T13:16:13.211Z,47.03
2019-01-23T13:18:14.846Z,47.10
2019-01-23T13:20:16.444Z,47.14
2019-01-23T13:22:18.038Z,47.15
2019-01-23T13:24:19.633Z,47.19
2019-01-23T13:26:21.257Z,47.17
2019-01-23T13:28:22.864Z,47.18
2019-01-23T13:30:24.465Z,47.15
2019-01-23T13:32:26.068Z,47.12
2019-01-23T13:34:27.681Z,47.10
2019-01-23T13:36:29.282Z,47.17
2019-01-23T13:38:30.916Z,47.17
2019-01-23T13:40:32.552Z,47.16
2019-01-23T13:42:34.153Z,47.17
2019-01-23T13:44:35.757Z,47.24
2019-01-23T13:46:37.400Z,47.40
2019-01-23T13:48:39.020Z,47.54
2019-01-23T13:50:40.663Z,47.69
2019-01-23T13:52:42.326Z,47.80
2019-01-23T13:54:43.925Z,47.90
2019-01-23T13:56:45.532Z,47.87
2019-01-23T13:58:47.171Z,47.71
2019-01-23T14:00:48.759Z,47.47
2019-01-23T14:02:50.344Z,47.10
2019-01-23T14:04:51.940Z,46.86
2019-01-23T14:06:53.552Z,46.46
2019-01-23T14:08:55.173Z,46.10
2019-01-23T14:10:56.872Z,45.78
2019-01-23T14:12:58.469Z,45.56
2019-01-23T14:15:00.253Z,45.32
2019-01-23T14:17:01.778Z,45.05
2019-01-23T14:19:03.371Z,44.89
2019-01-23T14:21:04.980Z,44.84
2019-01-23T14:23:06.625Z,44.70
2019-01-23T14:25:08.212Z,44.63
2019-01-23T14:27:09.816Z,44.64
2019-01-23T14:29:11.563Z,44.63
2019-01-23T14:31:13.222Z,44.58
2019-01-23T14:33:14.818Z,44.60
2019-01-23T14:35:16.413Z,44.71
2019-01-23T14:37:18.031Z,44.75
2019-01-23T14:39:19.627Z,44.84
2019-01-23T14:41:21.241Z,44.95
2019-01-23T14:43:22.867Z,45.09
2019-01-23T14:45:24.466Z,45.21
2019-01-23T14:47:26.067Z,45.29
2019-01-23T14:49:27.673Z,45.42
2019-01-23T14:51:29.283Z,45.55
2019-01-23T14:53:30.924Z,45.77
2019-01-23T14:55:32.507Z,45.96
2019-01-23T14:57:34.102Z,46.05
2019-01-23T14:59:35.713Z,46.17
2019-01-23T15:01:37.310Z,46.27
2019-01-23T15:03:38.906Z,46.34
2019-01-23T15:05:40.575Z,46.39
2019-01-23T15:07:42.179Z,46.38
2019-01-23T15:09:43.789Z,46.44
2019-01-23T15:11:45.382Z,46.45
2019-01-23T15:13:46.987Z,46.46
2019-01-23T15:15:48.581Z,46.42
2019-01-23T15:17:50.222Z,46.44
2019-01-23T15:19:51.817Z,46.52
2019-01-23T15:21:53.415Z,46.47
2019-01-23T15:23:55.036Z,46.46
2019-01-23T15:25:56.619Z,46.52
2019-01-23T15:27:58.213Z,46.46
2019-01-23T15:29:59.858Z,46.54
2019-01-23T15:32:01.501Z,46.58
2019-01-23T15:34:03.103Z,46.53
2019-01-23T15:36:04.732Z,46.45
2019-01-23T15:38:06.385Z,46.36
2019-01-23T15:40:07.981Z,46.32
2019-01-23T15:42:09.574Z,46.20
2019-01-23T15:44:11.169Z,46.08
2019-01-23T15:46:12.754Z,45.88
2019-01-23T15:48:14.369Z,45.63
2019-01-23T15:50:16.027Z,45.44
2019-01-23T15:52:17.630Z,45.24
2019-01-23T15:54:19.221Z,45.07
2019-01-23T15:56:20.862Z,44.92
2019-01-23T15:58:22.461Z,44.81
2019-01-23T16:00:24.057Z,44.81
2019-01-23T16:02:25.708Z,44.67
2019-01-23T16:04:27.295Z,44.57
2019-01-23T16:06:29.842Z,44.60
2019-01-23T16:08:30.628Z,44.60
2019-01-23T16:10:32.226Z,44.68
2019-01-23T16:12:33.836Z,44.69
2019-01-23T16:14:35.420Z,44.73
2019-01-23T16:16:37.015Z,44.86
2019-01-23T16:18:38.647Z,44.99
2019-01-23T16:20:40.228Z,45.06
2019-01-23T16:22:41.841Z,45.15
2019-01-23T16:24:43.434Z,45.22
2019-01-23T16:26:45.030Z,45.44
2019-01-23T16:28:46.642Z,45.56
2019-01-23T16:30:48.280Z,45.65
2019-01-23T16:32:49.914Z,45.74
2019-01-23T16:34:51.509Z,45.78
2019-01-23T16:36:53.101Z,45.81
2019-01-23T16:38:54.702Z,45.82
2019-01-23T16:40:56.308Z,45.77
2019-01-23T16:42:57.906Z,45.83
2019-01-23T16:44:59.502Z,45.79
2019-01-23T16:47:01.097Z,45.81
2019-01-23T16:49:02.748Z,45.81
2019-01-23T16:51:04.346Z,45.75
2019-01-23T16:53:05.945Z,45.72
2019-01-23T16:55:07.570Z,45.73
2019-01-23T16:57:09.171Z,45.75
2019-01-23T16:59:10.779Z,45.72
2019-01-23T17:01:12.382Z,45.75
2019-01-23T17:03:13.977Z,45.71
2019-01-23T17:05:15.597Z,45.65
2019-01-23T17:07:17.196Z,45.55
2019-01-23T17:09:18.804Z,45.54
2019-01-23T17:11:20.442Z,45.29
2019-01-23T17:13:22.052Z,45.11
2019-01-23T17:15:23.645Z,44.90
2019-01-23T17:17:25.412Z,44.76
2019-01-23T17:19:26.922Z,44.67
2019-01-23T17:21:28.527Z,44.55
2019-01-23T17:23:30.167Z,44.40
2019-01-23T17:25:31.762Z,44.29
2019-01-23T17:27:33.354Z,44.15
2019-01-23T17:29:34.968Z,44.09
2019-01-23T17:31:36.566Z,44.13
2019-01-23T17:33:38.176Z,44.08
2019-01-23T17:35:39.792Z,44.19
2019-01-23T17:37:41.386Z,44.27
2019-01-23T17:39:43.034Z,44.33
2019-01-23T17:41:44.630Z,44.45
2019-01-23T17:43:46.212Z,44.52
2019-01-23T17:45:47.846Z,44.63
2019-01-23T17:47:49.448Z,44.76
2019-01-23T17:49:51.082Z,44.95
2019-01-23T17:51:52.678Z,45.03
2019-01-23T17:53:54.288Z,45.12
2019-01-23T17:55:55.957Z,45.21
2019-01-23T17:57:57.567Z,45.26
2019-01-23T17:59:59.180Z,45.31
2019-01-23T18:02:00.792Z,45.37
2019-01-23T18:04:02.391Z,45.43
2019-01-23T18:06:04.019Z,45.58
2019-01-23T18:08:05.643Z,45.71
2019-01-23T18:10:07.253Z,45.86
2019-01-23T18:12:08.854Z,46.04
2019-01-23T18:14:10.440Z,46.14
2019-01-23T18:16:12.055Z,46.35
2019-01-23T18:18:13.663Z,46.33
2019-01-23T18:20:15.518Z,46.31
2019-01-23T18:22:17.109Z,46.26
2019-01-23T18:24:18.744Z,46.25
2019-01-23T18:26:20.337Z,46.08
2019-01-23T18:28:21.939Z,45.92
2019-01-23T18:30:23.535Z,45.76
2019-01-23T18:32:25.135Z,45.47
2019-01-23T18:34:26.739Z,45.22
2019-01-23T18:36:28.333Z,45.07
2019-01-23T18:38:29.915Z,44.91
2019-01-23T18:40:31.510Z,44.80
2019-01-23T18:42:33.095Z,44.73
2019-01-23T18:44:34.699Z,44.53
2019-01-23T18:46:36.298Z,44.43
2019-01-23T18:48:37.942Z,44.34
2019-01-23T18:50:39.537Z,44.25
2019-01-23T18:52:41.133Z,44.10
2019-01-23T18:54:42.772Z,44.13
2019-01-23T18:56:44.356Z,43.98
2019-01-23T18:58:45.949Z,43.98
2019-01-23T19:00:47.555Z,43.93
2019-01-23T19:02:49.139Z,43.91
2019-01-23T19:04:50.734Z,43.96
2019-01-23T19:06:52.365Z,43.82
2019-01-23T19:08:53.957Z,43.83
2019-01-23T19:10:55.553Z,43.85
2019-01-23T19:12:57.185Z,43.91
2019-01-23T19:14:58.787Z,43.90
2019-01-23T19:17:00.395Z,43.99
2019-01-23T19:19:01.993Z,44.04
2019-01-23T19:21:03.595Z,44.05
2019-01-23T19:23:05.180Z,44.15
2019-01-23T19:25:06.774Z,44.26
2019-01-23T19:27:08.369Z,44.42
2019-01-23T19:29:09.962Z,44.56
2019-01-23T19:31:11.586Z,44.62
2019-01-23T19:33:13.667Z,44.64
2019-01-23T19:35:14.848Z,44.72
2019-01-23T19:37:16.485Z,44.75
2019-01-23T19:39:18.095Z,44.81
2019-01-23T19:41:20.639Z,44.80
2019-01-23T19:43:21.351Z,44.85
2019-01-23T19:45:22.941Z,44.79
2019-01-23T19:47:24.539Z,44.89
2019-01-23T19:49:26.171Z,44.86
2019-01-23T19:51:27.766Z,44.84
2019-01-23T19:53:29.361Z,44.85
2019-01-23T19:55:30.972Z,44.92
2019-01-23T19:57:32.628Z,44.82
2019-01-23T19:59:34.225Z,44.82
2019-01-23T20:01:35.846Z,44.70
2019-01-23T20:03:37.456Z,44.66
2019-01-23T20:05:39.069Z,44.60
2019-01-23T20:07:40.693Z,44.45
2019-01-23T20:09:42.313Z,44.24
2019-01-23T20:11:43.916Z,44.11
2019-01-23T20:13:45.555Z,43.89
2019-01-23T20:15:47.159Z,43.69
2019-01-23T20:17:48.753Z,43.47
2019-01-23T20:19:50.396Z,43.35
2019-01-23T20:21:51.980Z,43.21
2019-01-23T20:23:53.575Z,43.11
2019-01-23T20:25:55.181Z,42.98
2019-01-23T20:27:56.772Z,42.97
2019-01-23T20:29:58.366Z,42.94
2019-01-23T20:31:59.947Z,43.02
2019-01-23T20:34:01.532Z,43.10
2019-01-23T20:36:03.165Z,43.30
2019-01-23T20:38:04.758Z,43.44
2019-01-23T20:40:06.364Z,43.54
2019-01-23T20:42:07.996Z,43.62
2019-01-23T20:44:09.610Z,43.74
2019-01-23T20:46:11.315Z,43.86
2019-01-23T20:48:12.909Z,44.01
2019-01-23T20:50:14.537Z,44.09
2019-01-23T20:52:16.131Z,44.24
2019-01-23T20:54:17.716Z,44.23
2019-01-23T20:56:19.328Z,44.34
2019-01-23T20:58:20.931Z,44.32
2019-01-23T21:00:22.525Z,44.43
2019-01-23T21:02:24.159Z,44.43
2019-01-23T21:04:25.781Z,44.43
2019-01-23T21:06:27.394Z,44.46
2019-01-23T21:08:29.002Z,44.56
2019-01-23T21:10:30.597Z,44.65
2019-01-23T21:12:32.212Z,44.74
2019-01-23T21:14:33.836Z,44.90
2019-01-23T21:16:35.449Z,45.00
2019-01-23T21:18:37.050Z,45.19
2019-01-23T21:20:38.720Z,45.15
2019-01-23T21:22:40.332Z,45.22
2019-01-23T21:24:41.945Z,45.19
2019-01-23T21:26:43.541Z,45.13
2019-01-23T21:28:45.133Z,44.99
2019-01-23T21:30:46.753Z,44.73
2019-01-23T21:32:48.360Z,44.60
2019-01-23T21:34:49.967Z,44.50
2019-01-23T21:36:51.552Z,44.46
2019-01-23T21:38:53.147Z,44.44
2019-01-23T21:40:54.761Z,44.34
2019-01-23T21:42:56.362Z,44.26
2019-01-23T21:44:58.043Z,44.24
2019-01-23T21:46:59.635Z,44.14
2019-01-23T21:49:01.229Z,44.14
2019-01-23T21:51:02.821Z,44.08
2019-01-23T21:53:04.418Z,44.27
2019-01-23T21:55:06.041Z,42.98
2019-01-23T21:57:07.697Z,42.74
2019-01-23T21:59:09.314Z,42.18
2019-01-23T22:01:10.988Z,42.96
2019-01-23T22:03:12.741Z,43.12
2019-01-23T22:05:14.338Z,43.05
2019-01-23T22:07:15.930Z,43.78
2019-01-23T22:09:17.535Z,44.53
2019-01-23T22:11:19.134Z,44.98
2019-01-23T22:13:20.790Z,44.38
2019-01-23T22:15:22.376Z,44.88
2019-01-23T22:17:23.972Z,45.05
2019-01-23T22:19:25.584Z,45.14
2019-01-23T22:21:27.201Z,45.18
2019-01-23T22:23:28.847Z,45.97
2019-01-23T22:25:30.455Z,46.15
2019-01-23T22:27:32.064Z,45.84
2019-01-23T22:29:33.648Z,46.24
2019-01-23T22:31:35.246Z,45.81
2019-01-23T22:33:36.870Z,45.93
2019-01-23T22:35:38.503Z,46.23
2019-01-23T22:37:40.145Z,46.06
2019-01-23T22:39:41.804Z,46.21
2019-01-23T22:41:43.447Z,46.38
2019-01-23T22:43:45.036Z,46.50
2019-01-23T22:45:46.688Z,46.48
2019-01-23T22:47:48.281Z,46.39
2019-01-23T22:49:49.889Z,46.03
2019-01-23T22:51:51.492Z,46.02
2019-01-23T22:53:53.086Z,46.72
2019-01-23T22:55:54.713Z,46.96
2019-01-23T22:57:56.306Z,47.06
2019-01-23T22:59:57.920Z,47.10
2019-01-23T23:01:59.518Z,47.21
2019-01-23T23:04:03.376Z,47.23
2019-01-23T23:06:02.831Z,47.17
2019-01-23T23:08:04.479Z,47.05
2019-01-23T23:10:06.087Z,47.17
2019-01-23T23:12:07.691Z,47.18
2019-01-23T23:14:09.286Z,47.31
2019-01-23T23:16:10.886Z,47.21
2019-01-23T23:18:12.529Z,47.27
2019-01-23T23:20:14.307Z,47.21
2019-01-23T23:22:15.933Z,47.13
2019-01-23T23:24:17.549Z,47.45
2019-01-23T23:26:19.146Z,48.11
2019-01-23T23:28:25.882Z,47.78
2019-01-23T23:30:22.390Z,48.36
2019-01-23T23:32:24.014Z,48.56
2019-01-23T23:34:25.615Z,49.00
2019-01-23T23:36:27.213Z,49.09
2019-01-23T23:38:28.887Z,49.21
2019-01-23T23:40:30.601Z,49.19
2019-01-23T23:42:32.201Z,49.43
2019-01-23T23:44:33.852Z,49.60
2019-01-23T23:46:35.463Z,49.65
2019-01-23T23:48:37.066Z,49.70
2019-01-23T23:50:38.699Z,49.76
2019-01-23T23:52:40.284Z,49.76
2019-01-23T23:54:41.891Z,49.92
2019-01-23T23:56:43.500Z,49.63
2019-01-23T23:58:45.106Z,49.57
